sensor_id;sensor_type;location;lat;lon;timestamp;P1;durP1;ratioP1;P2;durP2;ratioP2
3949;SDS011;53057;50.988;6.314;2022-08-19T00:01:59;57.97;;;43.33;;
3949;SDS011;53057;50.988;6.314;2022-08-19T00:04:28;57.43;;;45.03;;
3949;SDS011;53057;50.988;6.314;2022-08-19T00:06:56;53.53;;;44.70;;
3949;SDS011;53057;50.988;6.314;2022-08-19T00:09:24;54.90;;;46.80;;
3949;SDS011;53057;50.988;6.314;2022-08-19T00:11:51;60.27;;;46.50;;
3949;SDS011;53057;50.988;6.314;2022-08-19T00:14:19;54.87;;;45.43;;
3949;SDS011;53057;50.988;6.314;2022-08-19T00:16:47;59.17;;;48.90;;
3949;SDS011;53057;50.988;6.314;2022-08-19T00:19:14;59.10;;;47.47;;
3949;SDS011;53057;50.988;6.314;2022-08-19T00:21:41;66.93;;;50.70;;
3949;SDS011;53057;50.988;6.314;2022-08-19T00:24:09;64.60;;;52.13;;
3949;SDS011;53057;50.988;6.314;2022-08-19T00:26:36;67.77;;;49.67;;
3949;SDS011;53057;50.988;6.314;2022-08-19T00:29:04;60.60;;;50.93;;
3949;SDS011;53057;50.988;6.314;2022-08-19T00:31:31;59.40;;;46.87;;
3949;SDS011;53057;50.988;6.314;2022-08-19T00:33:57;63.53;;;48.10;;
3949;SDS011;53057;50.988;6.314;2022-08-19T00:36:24;57.30;;;44.50;;
3949;SDS011;53057;50.988;6.314;2022-08-19T00:38:51;64.63;;;48.10;;
3949;SDS011;53057;50.988;6.314;2022-08-19T00:41:19;59.60;;;45.07;;
3949;SDS011;53057;50.988;6.314;2022-08-19T00:44:01;56.07;;;41.60;;
3949;SDS011;53057;50.988;6.314;2022-08-19T00:46:28;55.43;;;41.17;;
3949;SDS011;53057;50.988;6.314;2022-08-19T00:48:55;52.63;;;41.70;;
3949;SDS011;53057;50.988;6.314;2022-08-19T00:51:24;63.93;;;47.50;;
3949;SDS011;53057;50.988;6.314;2022-08-19T00:53:51;70.27;;;51.80;;
3949;SDS011;53057;50.988;6.314;2022-08-19T00:56:18;66.90;;;50.87;;
3949;SDS011;53057;50.988;6.314;2022-08-19T00:58:44;69.90;;;49.40;;
3949;SDS011;53057;50.988;6.314;2022-08-19T01:01:11;68.17;;;49.03;;
3949;SDS011;53057;50.988;6.314;2022-08-19T01:03:40;64.73;;;49.27;;
3949;SDS011;53057;50.988;6.314;2022-08-19T01:06:23;65.70;;;50.60;;
3949;SDS011;53057;50.988;6.314;2022-08-19T01:08:50;73.87;;;53.07;;
3949;SDS011;53057;50.988;6.314;2022-08-19T01:11:17;76.33;;;54.90;;
3949;SDS011;53057;50.988;6.314;2022-08-19T01:13:44;79.47;;;52.87;;
3949;SDS011;53057;50.988;6.314;2022-08-19T01:16:16;81.97;;;58.20;;
3949;SDS011;53057;50.988;6.314;2022-08-19T01:18:43;81.10;;;55.37;;
3949;SDS011;53057;50.988;6.314;2022-08-19T01:23:49;77.67;;;55.63;;
3949;SDS011;53057;50.988;6.314;2022-08-19T01:26:18;79.10;;;58.07;;
3949;SDS011;53057;50.988;6.314;2022-08-19T01:28:46;68.47;;;52.70;;
3949;SDS011;53057;50.988;6.314;2022-08-19T01:31:14;70.07;;;54.43;;
3949;SDS011;53057;50.988;6.314;2022-08-19T01:33:54;74.63;;;53.60;;
3949;SDS011;53057;50.988;6.314;2022-08-19T01:36:22;76.80;;;55.17;;
3949;SDS011;53057;50.988;6.314;2022-08-19T01:38:49;82.90;;;60.63;;
3949;SDS011;53057;50.988;6.314;2022-08-19T01:41:17;85.97;;;62.23;;
3949;SDS011;53057;50.988;6.314;2022-08-19T01:43:44;82.37;;;62.07;;
3949;SDS011;53057;50.988;6.314;2022-08-19T01:46:31;89.33;;;64.83;;
3949;SDS011;53057;50.988;6.314;2022-08-19T01:48:58;81.20;;;58.77;;
3949;SDS011;53057;50.988;6.314;2022-08-19T01:51:26;97.17;;;66.30;;
3949;SDS011;53057;50.988;6.314;2022-08-19T01:53:54;87.87;;;62.93;;
3949;SDS011;53057;50.988;6.314;2022-08-19T01:56:20;101.57;;;63.40;;
3949;SDS011;53057;50.988;6.314;2022-08-19T01:59:10;93.07;;;65.50;;
3949;SDS011;53057;50.988;6.314;2022-08-19T02:01:34;94.30;;;61.97;;
3949;SDS011;53057;50.988;6.314;2022-08-19T02:04:01;88.40;;;60.60;;
3949;SDS011;53057;50.988;6.314;2022-08-19T02:06:28;93.27;;;60.80;;
3949;SDS011;53057;50.988;6.314;2022-08-19T02:08:55;81.67;;;60.07;;
3949;SDS011;53057;50.988;6.314;2022-08-19T02:11:24;81.30;;;56.93;;
3949;SDS011;53057;50.988;6.314;2022-08-19T02:13:53;83.93;;;58.13;;
3949;SDS011;53057;50.988;6.314;2022-08-19T02:16:20;87.90;;;63.90;;
3949;SDS011;53057;50.988;6.314;2022-08-19T02:18:47;93.97;;;62.17;;
3949;SDS011;53057;50.988;6.314;2022-08-19T02:21:18;85.73;;;61.40;;
3949;SDS011;53057;50.988;6.314;2022-08-19T02:23:45;92.43;;;62.30;;
3949;SDS011;53057;50.988;6.314;2022-08-19T02:26:12;93.43;;;64.70;;
3949;SDS011;53057;50.988;6.314;2022-08-19T02:28:40;109.10;;;67.10;;
3949;SDS011;53057;50.988;6.314;2022-08-19T02:31:12;92.67;;;65.00;;
3949;SDS011;53057;50.988;6.314;2022-08-19T02:33:39;112.97;;;75.80;;
3949;SDS011;53057;50.988;6.314;2022-08-19T02:36:06;111.90;;;74.80;;
3949;SDS011;53057;50.988;6.314;2022-08-19T02:38:33;116.33;;;75.03;;
3949;SDS011;53057;50.988;6.314;2022-08-19T02:41:06;112.50;;;77.13;;
3949;SDS011;53057;50.988;6.314;2022-08-19T02:43:33;111.43;;;77.60;;
3949;SDS011;53057;50.988;6.314;2022-08-19T02:46:14;125.00;;;85.00;;
3949;SDS011;53057;50.988;6.314;2022-08-19T02:48:48;121.40;;;81.97;;
3949;SDS011;53057;50.988;6.314;2022-08-19T02:51:20;130.37;;;86.13;;
3949;SDS011;53057;50.988;6.314;2022-08-19T02:53:47;122.33;;;80.90;;
3949;SDS011;53057;50.988;6.314;2022-08-19T02:56:13;120.37;;;83.67;;
3949;SDS011;53057;50.988;6.314;2022-08-19T02:58:40;121.83;;;79.13;;
3949;SDS011;53057;50.988;6.314;2022-08-19T03:01:08;130.93;;;82.93;;
3949;SDS011;53057;50.988;6.314;2022-08-19T03:03:37;129.30;;;86.00;;
3949;SDS011;53057;50.988;6.314;2022-08-19T03:06:07;130.80;;;80.23;;
3949;SDS011;53057;50.988;6.314;2022-08-19T03:08:33;126.20;;;82.00;;
3949;SDS011;53057;50.988;6.314;2022-08-19T03:11:00;125.83;;;80.00;;
3949;SDS011;53057;50.988;6.314;2022-08-19T03:13:28;119.87;;;77.90;;
3949;SDS011;53057;50.988;6.314;2022-08-19T03:15:55;124.57;;;79.33;;
3949;SDS011;53057;50.988;6.314;2022-08-19T03:18:22;129.23;;;80.40;;
3949;SDS011;53057;50.988;6.314;2022-08-19T03:20:49;117.17;;;78.50;;
3949;SDS011;53057;50.988;6.314;2022-08-19T03:23:16;120.10;;;79.60;;
3949;SDS011;53057;50.988;6.314;2022-08-19T03:25:44;118.47;;;76.23;;
3949;SDS011;53057;50.988;6.314;2022-08-19T03:28:11;120.40;;;80.17;;
3949;SDS011;53057;50.988;6.314;2022-08-19T03:30:39;113.23;;;79.17;;
3949;SDS011;53057;50.988;6.314;2022-08-19T03:33:09;120.90;;;77.80;;
3949;SDS011;53057;50.988;6.314;2022-08-19T03:35:43;113.23;;;75.50;;
3949;SDS011;53057;50.988;6.314;2022-08-19T03:38:13;118.93;;;75.70;;
3949;SDS011;53057;50.988;6.314;2022-08-19T03:40:40;116.87;;;78.10;;
3949;SDS011;53057;50.988;6.314;2022-08-19T03:43:07;123.30;;;79.57;;
3949;SDS011;53057;50.988;6.314;2022-08-19T03:45:33;126.23;;;80.43;;
3949;SDS011;53057;50.988;6.314;2022-08-19T03:48:00;116.73;;;74.97;;
3949;SDS011;53057;50.988;6.314;2022-08-19T03:50:27;122.60;;;79.10;;
3949;SDS011;53057;50.988;6.314;2022-08-19T03:52:53;118.83;;;75.63;;
3949;SDS011;53057;50.988;6.314;2022-08-19T03:55:20;124.13;;;79.30;;
3949;SDS011;53057;50.988;6.314;2022-08-19T03:57:46;123.43;;;78.27;;
3949;SDS011;53057;50.988;6.314;2022-08-19T04:00:14;134.30;;;83.60;;
3949;SDS011;53057;50.988;6.314;2022-08-19T04:02:41;133.57;;;80.37;;
3949;SDS011;53057;50.988;6.314;2022-08-19T04:05:27;130.33;;;80.77;;
3949;SDS011;53057;50.988;6.314;2022-08-19T04:07:55;132.90;;;83.40;;
3949;SDS011;53057;50.988;6.314;2022-08-19T04:10:25;155.17;;;89.50;;
3949;SDS011;53057;50.988;6.314;2022-08-19T04:12:51;146.77;;;89.03;;
3949;SDS011;53057;50.988;6.314;2022-08-19T04:15:18;165.00;;;95.70;;
3949;SDS011;53057;50.988;6.314;2022-08-19T04:17:46;162.80;;;93.83;;
3949;SDS011;53057;50.988;6.314;2022-08-19T04:20:13;176.90;;;96.90;;
3949;SDS011;53057;50.988;6.314;2022-08-19T04:22:40;167.70;;;94.10;;
3949;SDS011;53057;50.988;6.314;2022-08-19T04:25:06;175.90;;;95.70;;
3949;SDS011;53057;50.988;6.314;2022-08-19T04:27:33;171.23;;;93.87;;
3949;SDS011;53057;50.988;6.314;2022-08-19T04:30:00;159.93;;;94.77;;
3949;SDS011;53057;50.988;6.314;2022-08-19T04:32:27;179.90;;;95.20;;
3949;SDS011;53057;50.988;6.314;2022-08-19T04:34:53;169.07;;;98.10;;
3949;SDS011;53057;50.988;6.314;2022-08-19T04:37:42;178.53;;;98.80;;
3949;SDS011;53057;50.988;6.314;2022-08-19T04:40:09;187.50;;;100.90;;
3949;SDS011;53057;50.988;6.314;2022-08-19T04:42:55;189.30;;;101.50;;
3949;SDS011;53057;50.988;6.314;2022-08-19T04:45:22;189.27;;;103.27;;
3949;SDS011;53057;50.988;6.314;2022-08-19T04:47:49;187.73;;;102.47;;
3949;SDS011;53057;50.988;6.314;2022-08-19T04:50:25;198.77;;;103.97;;
3949;SDS011;53057;50.988;6.314;2022-08-19T04:52:52;197.67;;;105.40;;
3949;SDS011;53057;50.988;6.314;2022-08-19T04:55:19;192.13;;;104.43;;
3949;SDS011;53057;50.988;6.314;2022-08-19T04:57:47;204.37;;;108.73;;
3949;SDS011;53057;50.988;6.314;2022-08-19T05:00:14;200.87;;;105.83;;
3949;SDS011;53057;50.988;6.314;2022-08-19T05:02:41;214.87;;;111.07;;
3949;SDS011;53057;50.988;6.314;2022-08-19T05:05:08;194.30;;;106.63;;
3949;SDS011;53057;50.988;6.314;2022-08-19T05:07:35;183.97;;;101.00;;
3949;SDS011;53057;50.988;6.314;2022-08-19T05:10:03;199.13;;;101.97;;
3949;SDS011;53057;50.988;6.314;2022-08-19T05:12:30;203.17;;;104.97;;
3949;SDS011;53057;50.988;6.314;2022-08-19T05:14:57;198.80;;;102.90;;
3949;SDS011;53057;50.988;6.314;2022-08-19T05:17:25;176.10;;;98.20;;
3949;SDS011;53057;50.988;6.314;2022-08-19T05:19:54;190.37;;;100.27;;
3949;SDS011;53057;50.988;6.314;2022-08-19T05:22:41;205.70;;;103.03;;
3949;SDS011;53057;50.988;6.314;2022-08-19T05:25:10;181.73;;;97.57;;
3949;SDS011;53057;50.988;6.314;2022-08-19T05:27:39;189.90;;;98.27;;
3949;SDS011;53057;50.988;6.314;2022-08-19T05:30:06;171.80;;;97.10;;
3949;SDS011;53057;50.988;6.314;2022-08-19T05:32:33;163.87;;;87.83;;
3949;SDS011;53057;50.988;6.314;2022-08-19T05:35:00;150.80;;;87.20;;
3949;SDS011;53057;50.988;6.314;2022-08-19T05:37:27;161.53;;;88.20;;
3949;SDS011;53057;50.988;6.314;2022-08-19T05:39:54;155.73;;;87.77;;
3949;SDS011;53057;50.988;6.314;2022-08-19T05:42:21;168.73;;;87.97;;
3949;SDS011;53057;50.988;6.314;2022-08-19T05:44:49;149.80;;;84.50;;
3949;SDS011;53057;50.988;6.314;2022-08-19T05:47:17;160.20;;;90.10;;
3949;SDS011;53057;50.988;6.314;2022-08-19T05:49:46;161.53;;;87.87;;
3949;SDS011;53057;50.988;6.314;2022-08-19T05:52:16;152.50;;;84.30;;
3949;SDS011;53057;50.988;6.314;2022-08-19T05:54:45;158.37;;;87.73;;
3949;SDS011;53057;50.988;6.314;2022-08-19T05:57:17;156.93;;;80.77;;
3949;SDS011;53057;50.988;6.314;2022-08-19T05:59:44;144.50;;;82.10;;
3949;SDS011;53057;50.988;6.314;2022-08-19T06:02:23;127.87;;;80.93;;
3949;SDS011;53057;50.988;6.314;2022-08-19T06:04:50;120.83;;;72.17;;
3949;SDS011;53057;50.988;6.314;2022-08-19T06:07:16;122.63;;;74.67;;
3949;SDS011;53057;50.988;6.314;2022-08-19T06:09:43;118.93;;;73.30;;
3949;SDS011;53057;50.988;6.314;2022-08-19T06:12:30;115.10;;;71.87;;
3949;SDS011;53057;50.988;6.314;2022-08-19T06:15:04;120.40;;;73.80;;
3949;SDS011;53057;50.988;6.314;2022-08-19T06:17:31;142.87;;;75.50;;
3949;SDS011;53057;50.988;6.314;2022-08-19T06:19:58;127.07;;;73.67;;
3949;SDS011;53057;50.988;6.314;2022-08-19T06:22:25;124.20;;;77.37;;
3949;SDS011;53057;50.988;6.314;2022-08-19T06:24:52;122.57;;;73.40;;
3949;SDS011;53057;50.988;6.314;2022-08-19T06:27:20;125.43;;;75.27;;
3949;SDS011;53057;50.988;6.314;2022-08-19T06:29:47;132.30;;;80.80;;
3949;SDS011;53057;50.988;6.314;2022-08-19T06:32:15;116.80;;;72.70;;
3949;SDS011;53057;50.988;6.314;2022-08-19T06:34:43;118.00;;;69.30;;
3949;SDS011;53057;50.988;6.314;2022-08-19T06:37:10;110.80;;;65.17;;
3949;SDS011;53057;50.988;6.314;2022-08-19T06:39:38;115.10;;;70.03;;
3949;SDS011;53057;50.988;6.314;2022-08-19T06:42:05;105.83;;;66.87;;
3949;SDS011;53057;50.988;6.314;2022-08-19T06:44:36;107.73;;;68.17;;
3949;SDS011;53057;50.988;6.314;2022-08-19T06:47:10;106.67;;;63.63;;
3949;SDS011;53057;50.988;6.314;2022-08-19T06:49:48;105.10;;;66.57;;
3949;SDS011;53057;50.988;6.314;2022-08-19T06:52:18;103.00;;;62.77;;
3949;SDS011;53057;50.988;6.314;2022-08-19T06:54:46;93.53;;;63.63;;
3949;SDS011;53057;50.988;6.314;2022-08-19T06:57:25;104.93;;;61.37;;
3949;SDS011;53057;50.988;6.314;2022-08-19T06:59:52;92.10;;;58.93;;
3949;SDS011;53057;50.988;6.314;2022-08-19T07:02:19;89.40;;;57.80;;
3949;SDS011;53057;50.988;6.314;2022-08-19T07:04:47;83.80;;;54.03;;
3949;SDS011;53057;50.988;6.314;2022-08-19T07:07:20;84.03;;;51.73;;
3949;SDS011;53057;50.988;6.314;2022-08-19T07:09:48;80.00;;;52.90;;
3949;SDS011;53057;50.988;6.314;2022-08-19T07:12:35;81.00;;;54.30;;
3949;SDS011;53057;50.988;6.314;2022-08-19T07:15:04;77.37;;;52.07;;
3949;SDS011;53057;50.988;6.314;2022-08-19T07:17:31;75.77;;;47.53;;
3949;SDS011;53057;50.988;6.314;2022-08-19T07:20:00;70.67;;;43.47;;
3949;SDS011;53057;50.988;6.314;2022-08-19T07:22:35;70.37;;;48.90;;
3949;SDS011;53057;50.988;6.314;2022-08-19T07:25:02;62.53;;;44.53;;
3949;SDS011;53057;50.988;6.314;2022-08-19T07:27:30;64.03;;;41.83;;
3949;SDS011;53057;50.988;6.314;2022-08-19T07:29:59;54.60;;;40.40;;
3949;SDS011;53057;50.988;6.314;2022-08-19T07:32:25;56.73;;;39.47;;
3949;SDS011;53057;50.988;6.314;2022-08-19T07:34:54;58.10;;;40.70;;
3949;SDS011;53057;50.988;6.314;2022-08-19T07:37:23;48.10;;;36.80;;
3949;SDS011;53057;50.988;6.314;2022-08-19T07:39:54;45.23;;;33.67;;
3949;SDS011;53057;50.988;6.314;2022-08-19T07:42:21;46.37;;;36.80;;
3949;SDS011;53057;50.988;6.314;2022-08-19T07:44:48;48.00;;;33.60;;
3949;SDS011;53057;50.988;6.314;2022-08-19T07:47:16;48.33;;;34.93;;
3949;SDS011;53057;50.988;6.314;2022-08-19T07:50:05;43.47;;;32.33;;
3949;SDS011;53057;50.988;6.314;2022-08-19T07:52:33;41.80;;;34.17;;
3949;SDS011;53057;50.988;6.314;2022-08-19T07:55:03;46.80;;;31.97;;
3949;SDS011;53057;50.988;6.314;2022-08-19T07:57:30;44.80;;;31.80;;
3949;SDS011;53057;50.988;6.314;2022-08-19T07:59:57;42.30;;;32.90;;
3949;SDS011;53057;50.988;6.314;2022-08-19T08:02:24;44.67;;;35.23;;
3949;SDS011;53057;50.988;6.314;2022-08-19T08:04:50;44.40;;;33.40;;
3949;SDS011;53057;50.988;6.314;2022-08-19T08:07:36;46.93;;;32.83;;
3949;SDS011;53057;50.988;6.314;2022-08-19T08:10:23;50.63;;;35.90;;
3949;SDS011;53057;50.988;6.314;2022-08-19T08:12:50;46.20;;;36.10;;
3949;SDS011;53057;50.988;6.314;2022-08-19T08:15:36;41.57;;;33.00;;
3949;SDS011;53057;50.988;6.314;2022-08-19T08:18:09;40.27;;;30.73;;
3949;SDS011;53057;50.988;6.314;2022-08-19T08:20:36;36.03;;;29.03;;
3949;SDS011;53057;50.988;6.314;2022-08-19T08:23:05;34.53;;;28.50;;
3949;SDS011;53057;50.988;6.314;2022-08-19T08:25:51;43.50;;;33.50;;
3949;SDS011;53057;50.988;6.314;2022-08-19T08:28:18;47.93;;;34.70;;
3949;SDS011;53057;50.988;6.314;2022-08-19T08:30:46;53.30;;;34.20;;
3949;SDS011;53057;50.988;6.314;2022-08-19T08:33:19;48.60;;;37.67;;
3949;SDS011;53057;50.988;6.314;2022-08-19T08:36:07;39.57;;;33.20;;
3949;SDS011;53057;50.988;6.314;2022-08-19T08:38:36;53.70;;;38.67;;
3949;SDS011;53057;50.988;6.314;2022-08-19T08:41:28;37.83;;;31.43;;
3949;SDS011;53057;50.988;6.314;2022-08-19T08:43:54;44.90;;;33.80;;
3949;SDS011;53057;50.988;6.314;2022-08-19T08:49:05;41.70;;;34.90;;
3949;SDS011;53057;50.988;6.314;2022-08-19T08:51:49;42.07;;;33.23;;
3949;SDS011;53057;50.988;6.314;2022-08-19T08:54:28;43.30;;;34.37;;
3949;SDS011;53057;50.988;6.314;2022-08-19T08:56:56;47.93;;;37.67;;
3949;SDS011;53057;50.988;6.314;2022-08-19T08:59:28;42.87;;;33.47;;
3949;SDS011;53057;50.988;6.314;2022-08-19T09:01:59;42.60;;;33.53;;
3949;SDS011;53057;50.988;6.314;2022-08-19T09:04:27;45.10;;;31.13;;
3949;SDS011;53057;50.988;6.314;2022-08-19T09:09:32;39.03;;;31.07;;
3949;SDS011;53057;50.988;6.314;2022-08-19T09:14:56;30.70;;;24.53;;
3949;SDS011;53057;50.988;6.314;2022-08-19T09:17:27;39.10;;;27.53;;
3949;SDS011;53057;50.988;6.314;2022-08-19T09:19:58;37.43;;;30.43;;
3949;SDS011;53057;50.988;6.314;2022-08-19T09:22:31;39.93;;;31.23;;
3949;SDS011;53057;50.988;6.314;2022-08-19T09:24:59;37.23;;;28.70;;
3949;SDS011;53057;50.988;6.314;2022-08-19T09:27:26;33.23;;;26.30;;
3949;SDS011;53057;50.988;6.314;2022-08-19T09:30:10;31.20;;;26.43;;
3949;SDS011;53057;50.988;6.314;2022-08-19T09:32:37;29.70;;;25.00;;
3949;SDS011;53057;50.988;6.314;2022-08-19T09:35:05;39.33;;;28.20;;
3949;SDS011;53057;50.988;6.314;2022-08-19T09:37:35;33.87;;;27.60;;
3949;SDS011;53057;50.988;6.314;2022-08-19T09:40:03;33.80;;;26.53;;
3949;SDS011;53057;50.988;6.314;2022-08-19T09:42:30;38.10;;;26.60;;
3949;SDS011;53057;50.988;6.314;2022-08-19T09:45:01;32.70;;;28.37;;
3949;SDS011;53057;50.988;6.314;2022-08-19T09:47:30;33.07;;;24.20;;
3949;SDS011;53057;50.988;6.314;2022-08-19T09:49:58;25.10;;;20.57;;
3949;SDS011;53057;50.988;6.314;2022-08-19T09:52:25;27.77;;;19.77;;
3949;SDS011;53057;50.988;6.314;2022-08-19T09:54:58;28.13;;;22.40;;
3949;SDS011;53057;50.988;6.314;2022-08-19T09:57:26;22.80;;;18.90;;
3949;SDS011;53057;50.988;6.314;2022-08-19T09:59:52;26.60;;;19.53;;
3949;SDS011;53057;50.988;6.314;2022-08-19T10:02:20;29.10;;;23.40;;
3949;SDS011;53057;50.988;6.314;2022-08-19T10:04:47;30.20;;;22.80;;
3949;SDS011;53057;50.988;6.314;2022-08-19T10:07:33;26.50;;;20.90;;
3949;SDS011;53057;50.988;6.314;2022-08-19T10:10:03;25.47;;;18.60;;
3949;SDS011;53057;50.988;6.314;2022-08-19T10:12:30;27.33;;;22.50;;
3949;SDS011;53057;50.988;6.314;2022-08-19T10:14:57;33.27;;;21.20;;
3949;SDS011;53057;50.988;6.314;2022-08-19T10:17:24;31.17;;;23.37;;
3949;SDS011;53057;50.988;6.314;2022-08-19T10:19:56;27.10;;;19.73;;
3949;SDS011;53057;50.988;6.314;2022-08-19T10:22:23;28.93;;;21.60;;
3949;SDS011;53057;50.988;6.314;2022-08-19T10:24:52;25.97;;;21.03;;
3949;SDS011;53057;50.988;6.314;2022-08-19T10:27:19;31.50;;;22.47;;
3949;SDS011;53057;50.988;6.314;2022-08-19T10:29:45;30.10;;;21.70;;
3949;SDS011;53057;50.988;6.314;2022-08-19T10:32:14;34.60;;;26.00;;
3949;SDS011;53057;50.988;6.314;2022-08-19T10:34:42;44.50;;;26.27;;
3949;SDS011;53057;50.988;6.314;2022-08-19T10:37:15;38.57;;;27.33;;
3949;SDS011;53057;50.988;6.314;2022-08-19T10:39:49;28.40;;;21.73;;
3949;SDS011;53057;50.988;6.314;2022-08-19T10:45:15;30.20;;;22.20;;
3949;SDS011;53057;50.988;6.314;2022-08-19T10:47:43;35.80;;;25.20;;
3949;SDS011;53057;50.988;6.314;2022-08-19T10:50:11;29.03;;;22.33;;
3949;SDS011;53057;50.988;6.314;2022-08-19T10:52:57;29.13;;;22.00;;
3949;SDS011;53057;50.988;6.314;2022-08-19T10:55:25;27.00;;;20.00;;
3949;SDS011;53057;50.988;6.314;2022-08-19T10:58:15;26.67;;;22.00;;
3949;SDS011;53057;50.988;6.314;2022-08-19T11:00:43;34.67;;;26.10;;
3949;SDS011;53057;50.988;6.314;2022-08-19T11:03:10;32.33;;;22.73;;
3949;SDS011;53057;50.988;6.314;2022-08-19T11:05:37;28.03;;;20.80;;
3949;SDS011;53057;50.988;6.314;2022-08-19T11:08:06;24.30;;;19.53;;
3949;SDS011;53057;50.988;6.314;2022-08-19T11:10:52;26.60;;;19.17;;
3949;SDS011;53057;50.988;6.314;2022-08-19T11:13:31;28.07;;;21.07;;
3949;SDS011;53057;50.988;6.314;2022-08-19T11:16:00;26.27;;;20.03;;
3949;SDS011;53057;50.988;6.314;2022-08-19T11:18:37;25.67;;;19.70;;
3949;SDS011;53057;50.988;6.314;2022-08-19T11:21:12;23.17;;;19.10;;
3949;SDS011;53057;50.988;6.314;2022-08-19T11:23:39;20.00;;;16.87;;
3949;SDS011;53057;50.988;6.314;2022-08-19T11:26:06;20.70;;;16.50;;
3949;SDS011;53057;50.988;6.314;2022-08-19T11:28:33;20.37;;;15.73;;
3949;SDS011;53057;50.988;6.314;2022-08-19T11:31:00;19.47;;;14.80;;
3949;SDS011;53057;50.988;6.314;2022-08-19T11:33:30;27.77;;;18.37;;
3949;SDS011;53057;50.988;6.314;2022-08-19T11:35:58;23.47;;;16.10;;
3949;SDS011;53057;50.988;6.314;2022-08-19T11:38:26;16.67;;;13.90;;
3949;SDS011;53057;50.988;6.314;2022-08-19T11:41:00;19.73;;;15.60;;
3949;SDS011;53057;50.988;6.314;2022-08-19T11:43:27;23.90;;;16.90;;
3949;SDS011;53057;50.988;6.314;2022-08-19T11:45:55;27.40;;;17.97;;
3949;SDS011;53057;50.988;6.314;2022-08-19T11:48:22;27.87;;;17.60;;
3949;SDS011;53057;50.988;6.314;2022-08-19T11:50:49;25.17;;;19.60;;
3949;SDS011;53057;50.988;6.314;2022-08-19T11:53:17;20.53;;;16.73;;
3949;SDS011;53057;50.988;6.314;2022-08-19T11:55:47;24.90;;;16.93;;
3949;SDS011;53057;50.988;6.314;2022-08-19T11:58:15;25.17;;;19.10;;
3949;SDS011;53057;50.988;6.314;2022-08-19T12:00:44;16.70;;;13.27;;
3949;SDS011;53057;50.988;6.314;2022-08-19T12:03:12;17.33;;;13.00;;
3949;SDS011;53057;50.988;6.314;2022-08-19T12:05:39;22.27;;;15.03;;
3949;SDS011;53057;50.988;6.314;2022-08-19T12:08:07;17.20;;;15.43;;
3949;SDS011;53057;50.988;6.314;2022-08-19T12:10:35;12.90;;;11.53;;
3949;SDS011;53057;50.988;6.314;2022-08-19T12:13:05;11.73;;;10.53;;
3949;SDS011;53057;50.988;6.314;2022-08-19T12:15:36;17.77;;;14.80;;
3949;SDS011;53057;50.988;6.314;2022-08-19T12:18:04;15.50;;;13.50;;
3949;SDS011;53057;50.988;6.314;2022-08-19T12:20:36;14.80;;;13.20;;
3949;SDS011;53057;50.988;6.314;2022-08-19T12:23:04;22.83;;;18.67;;
3949;SDS011;53057;50.988;6.314;2022-08-19T12:25:31;23.83;;;18.80;;
3949;SDS011;53057;50.988;6.314;2022-08-19T12:28:00;20.90;;;16.00;;
3949;SDS011;53057;50.988;6.314;2022-08-19T12:30:27;13.77;;;10.87;;
3949;SDS011;53057;50.988;6.314;2022-08-19T12:32:57;14.80;;;11.80;;
3949;SDS011;53057;50.988;6.314;2022-08-19T12:35:24;12.23;;;11.07;;
3949;SDS011;53057;50.988;6.314;2022-08-19T12:37:51;11.47;;;10.37;;
3949;SDS011;53057;50.988;6.314;2022-08-19T12:40:23;11.47;;;9.83;;
3949;SDS011;53057;50.988;6.314;2022-08-19T12:42:52;22.30;;;9.73;;
3949;SDS011;53057;50.988;6.314;2022-08-19T12:45:20;11.50;;;8.27;;
3949;SDS011;53057;50.988;6.314;2022-08-19T12:47:47;12.83;;;7.50;;
3949;SDS011;53057;50.988;6.314;2022-08-19T12:50:15;10.60;;;9.70;;
3949;SDS011;53057;50.988;6.314;2022-08-19T12:52:42;13.57;;;10.80;;
3949;SDS011;53057;50.988;6.314;2022-08-19T12:55:09;14.33;;;8.67;;
3949;SDS011;53057;50.988;6.314;2022-08-19T12:57:37;8.97;;;8.13;;
3949;SDS011;53057;50.988;6.314;2022-08-19T13:00:12;14.93;;;7.20;;
3949;SDS011;53057;50.988;6.314;2022-08-19T13:02:40;6.83;;;5.60;;
3949;SDS011;53057;50.988;6.314;2022-08-19T13:05:10;6.70;;;6.10;;
3949;SDS011;53057;50.988;6.314;2022-08-19T13:07:38;7.57;;;6.77;;
3949;SDS011;53057;50.988;6.314;2022-08-19T13:10:07;9.70;;;7.20;;
3949;SDS011;53057;50.988;6.314;2022-08-19T13:12:34;5.27;;;4.87;;
3949;SDS011;53057;50.988;6.314;2022-08-19T13:15:01;6.00;;;4.60;;
3949;SDS011;53057;50.988;6.314;2022-08-19T13:17:36;9.30;;;6.20;;
3949;SDS011;53057;50.988;6.314;2022-08-19T13:20:03;5.10;;;4.70;;
3949;SDS011;53057;50.988;6.314;2022-08-19T13:22:31;6.93;;;5.00;;
3949;SDS011;53057;50.988;6.314;2022-08-19T13:25:05;7.63;;;5.67;;
3949;SDS011;53057;50.988;6.314;2022-08-19T13:27:32;5.17;;;4.37;;
3949;SDS011;53057;50.988;6.314;2022-08-19T13:29:59;6.93;;;4.80;;
3949;SDS011;53057;50.988;6.314;2022-08-19T13:32:49;5.63;;;4.20;;
3949;SDS011;53057;50.988;6.314;2022-08-19T13:35:34;5.40;;;4.27;;
3949;SDS011;53057;50.988;6.314;2022-08-19T13:38:01;5.30;;;3.80;;
3949;SDS011;53057;50.988;6.314;2022-08-19T13:40:38;5.07;;;4.07;;
3949;SDS011;53057;50.988;6.314;2022-08-19T13:43:06;3.00;;;2.80;;
3949;SDS011;53057;50.988;6.314;2022-08-19T13:45:50;7.50;;;3.47;;
3949;SDS011;53057;50.988;6.314;2022-08-19T13:48:20;3.40;;;3.20;;
3949;SDS011;53057;50.988;6.314;2022-08-19T13:50:47;4.93;;;3.90;;
3949;SDS011;53057;50.988;6.314;2022-08-19T13:53:14;4.47;;;3.27;;
3949;SDS011;53057;50.988;6.314;2022-08-19T13:55:42;5.47;;;3.33;;
3949;SDS011;53057;50.988;6.314;2022-08-19T13:58:09;3.57;;;2.60;;
3949;SDS011;53057;50.988;6.314;2022-08-19T14:00:38;4.83;;;3.13;;
3949;SDS011;53057;50.988;6.314;2022-08-19T14:03:06;5.30;;;3.37;;
3949;SDS011;53057;50.988;6.314;2022-08-19T14:05:41;3.93;;;3.57;;
3949;SDS011;53057;50.988;6.314;2022-08-19T14:08:08;7.00;;;3.00;;
3949;SDS011;53057;50.988;6.314;2022-08-19T14:10:35;4.63;;;3.80;;
3949;SDS011;53057;50.988;6.314;2022-08-19T14:13:03;5.00;;;3.80;;
3949;SDS011;53057;50.988;6.314;2022-08-19T14:15:30;3.00;;;2.80;;
3949;SDS011;53057;50.988;6.314;2022-08-19T14:17:57;3.33;;;3.00;;
3949;SDS011;53057;50.988;6.314;2022-08-19T14:20:24;4.17;;;3.00;;
3949;SDS011;53057;50.988;6.314;2022-08-19T14:22:52;6.50;;;2.90;;
3949;SDS011;53057;50.988;6.314;2022-08-19T14:25:21;5.20;;;2.70;;
3949;SDS011;53057;50.988;6.314;2022-08-19T14:27:48;3.40;;;3.10;;
3949;SDS011;53057;50.988;6.314;2022-08-19T14:30:17;6.00;;;2.90;;
3949;SDS011;53057;50.988;6.314;2022-08-19T14:32:44;3.50;;;2.20;;
3949;SDS011;53057;50.988;6.314;2022-08-19T14:35:15;3.73;;;2.30;;
3949;SDS011;53057;50.988;6.314;2022-08-19T14:37:43;3.50;;;2.23;;
3949;SDS011;53057;50.988;6.314;2022-08-19T14:40:15;5.03;;;1.90;;
3949;SDS011;53057;50.988;6.314;2022-08-19T14:42:43;1.60;;;1.47;;
3949;SDS011;53057;50.988;6.314;2022-08-19T14:45:10;1.67;;;1.57;;
3949;SDS011;53057;50.988;6.314;2022-08-19T14:47:37;3.33;;;1.60;;
3949;SDS011;53057;50.988;6.314;2022-08-19T14:50:07;2.30;;;2.10;;
3949;SDS011;53057;50.988;6.314;2022-08-19T14:52:43;1.73;;;1.57;;
3949;SDS011;53057;50.988;6.314;2022-08-19T14:55:12;3.20;;;2.27;;
3949;SDS011;53057;50.988;6.314;2022-08-19T14:57:44;2.67;;;2.27;;
3949;SDS011;53057;50.988;6.314;2022-08-19T15:00:11;1.83;;;1.73;;
3949;SDS011;53057;50.988;6.314;2022-08-19T15:02:40;3.17;;;1.90;;